createdAt,value
2022-11-09T00:01:44.416Z,97428.13
2022-11-09T00:05:56.904Z,97423.94
2022-11-09T00:09:58.983Z,97415.41
2022-11-09T00:14:01.107Z,97408.66
2022-11-09T00:18:03.213Z,97417.31
2022-11-09T00:22:05.219Z,97420.66
2022-11-09T00:26:09.589Z,97417.09
2022-11-09T00:30:12.000Z,97416.91
2022-11-09T00:34:14.292Z,97415.97
2022-11-09T00:38:17.572Z,97411.66
2022-11-09T00:42:19.672Z,97417.03
2022-11-09T00:46:21.982Z,97426.03
2022-11-09T00:50:26.271Z,97426.13
2022-11-09T00:54:28.511Z,97422.91
2022-11-09T00:58:32.561Z,97426.47
2022-11-09T01:02:34.700Z,97433.78
2022-11-09T01:06:36.909Z,97445.34
2022-11-09T01:10:43.974Z,97441.88
2022-11-09T01:14:46.002Z,97441.69
2022-11-09T01:18:48.429Z,97452.78
2022-11-09T01:22:51.581Z,97454.13
2022-11-09T01:26:53.668Z,97443.41
2022-11-09T01:31:01.641Z,97442.75
2022-11-09T01:35:03.667Z,97447.63
2022-11-09T01:39:06.080Z,97452.47
2022-11-09T01:43:22.941Z,97459.50
2022-11-09T01:47:25.738Z,97451.81
2022-11-09T01:51:32.895Z,97464.03
2022-11-09T01:55:37.611Z,97453.53
2022-11-09T01:59:45.445Z,97452.66
2022-11-09T02:03:55.449Z,97453.31
2022-11-09T02:08:02.863Z,97441.59
2022-11-09T02:12:06.471Z,97430.31
2022-11-09T02:16:12.470Z,97437.38
2022-11-09T02:20:15.742Z,97436.81
2022-11-09T02:24:18.484Z,97444.19
2022-11-09T02:28:21.132Z,97444.41
2022-11-09T02:32:27.348Z,97432.38
2022-11-09T02:36:31.855Z,97425.66
2022-11-09T02:40:38.393Z,97406.75
2022-11-09T02:44:46.107Z,97402.53
2022-11-09T02:48:48.178Z,97408.66
2022-11-09T02:52:50.322Z,97386.97
2022-11-09T02:56:53.463Z,97388.63
2022-11-09T03:00:56.048Z,97363.13
2022-11-09T03:04:59.825Z,97385.25
2022-11-09T03:09:07.739Z,97397.81
2022-11-09T03:13:10.147Z,97377.97
2022-11-09T03:17:14.012Z,97387.13
2022-11-09T03:21:16.101Z,97413.78
2022-11-09T03:25:19.621Z,97413.09
2022-11-09T03:29:22.063Z,97416.09
2022-11-09T03:33:24.371Z,97442.78
2022-11-09T03:37:26.537Z,97423.66
2022-11-09T03:41:28.906Z,97448.03
2022-11-09T03:45:31.162Z,97458.28
2022-11-09T03:49:33.181Z,97457.88
2022-11-09T03:53:35.215Z,97465.22
2022-11-09T03:57:37.272Z,97465.97
2022-11-09T04:01:39.352Z,97462.41
2022-11-09T04:05:41.416Z,97456.97
2022-11-09T04:09:43.428Z,97452.66
2022-11-09T04:13:45.551Z,97462.22
2022-11-09T04:18:01.129Z,97459.44
2022-11-09T04:22:03.136Z,97464.69
2022-11-09T04:26:05.266Z,97455.09
2022-11-09T04:30:07.975Z,97454.19
2022-11-09T04:34:09.975Z,97468.16
2022-11-09T04:38:13.731Z,97460.16
2022-11-09T04:42:15.943Z,97442.53
2022-11-09T04:46:18.082Z,97428.38
2022-11-09T04:50:20.759Z,97418.69
2022-11-09T04:54:26.919Z,97408.38
2022-11-09T04:58:29.061Z,97411.94
2022-11-09T05:02:32.400Z,97416.41
2022-11-09T05:06:34.680Z,97409.50
2022-11-09T05:10:37.086Z,97406.94
2022-11-09T05:14:39.120Z,97401.03
2022-11-09T05:18:41.237Z,97382.72
2022-11-09T05:23:01.500Z,97380.00
2022-11-09T05:27:04.942Z,97396.50
2022-11-09T05:31:07.319Z,97387.97
2022-11-09T05:35:09.552Z,97397.06
2022-11-09T05:39:11.571Z,97403.69
2022-11-09T05:43:13.721Z,97408.38
2022-11-09T05:47:15.811Z,97403.59
2022-11-09T05:51:17.827Z,97388.91
2022-11-09T05:55:19.988Z,97400.25
2022-11-09T05:59:22.131Z,97401.88
2022-11-09T06:03:24.156Z,97413.25
2022-11-09T06:07:26.277Z,97428.81
2022-11-09T06:11:29.099Z,97426.19
2022-11-09T06:15:31.292Z,97428.81
2022-11-09T06:19:33.377Z,97441.03
2022-11-09T06:23:35.443Z,97454.75
2022-11-09T06:27:37.443Z,97451.00
2022-11-09T06:31:39.510Z,97451.84
2022-11-09T06:35:41.723Z,97463.19
2022-11-09T06:39:44.442Z,97470.69
2022-11-09T06:43:46.670Z,97468.25
2022-11-09T06:47:48.696Z,97479.41
2022-11-09T06:51:50.705Z,97471.44
2022-11-09T06:55:52.787Z,97486.09
2022-11-09T06:59:54.919Z,97492.94
2022-11-09T07:03:57.084Z,97487.63
2022-11-09T07:07:59.088Z,97493.50
2022-11-09T07:12:01.150Z,97503.94
2022-11-09T07:16:03.914Z,97512.63
2022-11-09T07:20:07.642Z,97523.94
2022-11-09T07:24:09.640Z,97527.47
2022-11-09T07:28:12.073Z,97530.88
2022-11-09T07:32:14.048Z,97516.44
2022-11-09T07:36:21.211Z,97521.53
2022-11-09T07:40:23.699Z,97512.34
2022-11-09T07:44:25.737Z,97514.97
2022-11-09T07:48:27.778Z,97520.41
2022-11-09T07:52:29.838Z,97525.09
2022-11-09T07:56:31.954Z,97520.94
2022-11-09T08:00:35.995Z,97535.94
2022-11-09T08:04:38.069Z,97535.28
2022-11-09T08:08:40.149Z,97539.69
2022-11-09T08:12:42.180Z,97540.66
2022-11-09T08:16:44.239Z,97534.28
2022-11-09T08:20:47.135Z,97525.56
2022-11-09T08:24:49.227Z,97532.47
2022-11-09T08:28:51.399Z,97542.50
2022-11-09T08:32:53.624Z,97546.25
2022-11-09T08:36:59.074Z,97545.41
2022-11-09T08:41:01.050Z,97550.41
2022-11-09T08:45:03.366Z,97555.72
2022-11-09T08:49:05.557Z,97555.72
2022-11-09T08:53:08.009Z,97552.19
2022-11-09T08:57:10.157Z,97541.00
2022-11-09T09:01:16.647Z,97543.34
2022-11-09T09:05:19.623Z,97551.28
2022-11-09T09:09:21.642Z,97529.97
2022-11-09T09:13:23.780Z,97531.56
2022-11-09T09:17:26.233Z,97526.03
2022-11-09T09:21:28.281Z,97532.66
2022-11-09T09:25:30.423Z,97541.78
2022-11-09T09:29:32.403Z,97550.13
2022-11-09T09:33:34.491Z,97561.69
2022-11-09T09:37:36.624Z,97561.31
2022-11-09T09:41:51.268Z,97555.59
2022-11-09T09:45:54.405Z,97563.97
2022-11-09T09:50:01.623Z,97570.28
2022-11-09T09:54:17.855Z,97570.09
2022-11-09T09:58:28.509Z,97577.03
2022-11-09T10:02:34.421Z,97581.09
2022-11-09T10:06:49.966Z,97588.44
2022-11-09T10:11:30.444Z,97582.31
2022-11-09T10:15:41.026Z,97570.94
2022-11-09T10:20:08.666Z,97577.78
2022-11-09T10:24:48.630Z,97591.22
2022-11-09T10:29:16.585Z,97582.06
2022-11-09T10:33:21.590Z,97575.41
2022-11-09T10:37:38.931Z,97572.03
2022-11-09T10:41:46.836Z,97577.16
2022-11-09T10:46:08.848Z,97573.75
2022-11-09T10:50:54.576Z,97573.84
2022-11-09T10:55:27.124Z,97570.84
2022-11-09T10:59:54.582Z,97569.66
2022-11-09T11:04:24.749Z,97558.78
2022-11-09T11:09:12.440Z,97551.00
2022-11-09T11:13:33.614Z,97550.00
2022-11-09T11:18:02.275Z,97561.50
2022-11-09T11:22:27.205Z,97564.38
2022-11-09T11:27:22.006Z,97558.91
2022-11-09T11:31:42.996Z,97562.16
2022-11-09T11:36:27.256Z,97565.75
2022-11-09T11:41:25.353Z,97566.06
2022-11-09T11:46:00.853Z,97573.03
2022-11-09T11:50:43.816Z,97565.22
2022-11-09T11:55:22.056Z,97567.75
2022-11-09T11:59:42.874Z,97563.22
2022-11-09T12:04:48.068Z,97558.25
2022-11-09T12:09:26.364Z,97563.94
2022-11-09T12:14:08.263Z,97551.72
2022-11-09T12:18:43.675Z,97558.66
2022-11-09T12:23:37.101Z,97552.00
2022-11-09T12:28:25.841Z,97547.25
2022-11-09T12:33:08.485Z,97554.72
2022-11-09T12:37:46.627Z,97552.31
2022-11-09T12:42:16.095Z,97563.53
2022-11-09T12:46:43.452Z,97563.22
2022-11-09T12:51:05.366Z,97567.56
2022-11-09T12:55:39.566Z,97559.19
2022-11-09T13:00:01.131Z,97569.97
2022-11-09T13:04:23.583Z,97572.84
2022-11-09T13:08:57.556Z,97572.84
2022-11-09T13:13:22.679Z,97574.22
2022-11-09T13:17:57.823Z,97577.78
2022-11-09T13:22:19.623Z,97577.47
2022-11-09T13:26:55.949Z,97585.72
2022-11-09T13:32:05.837Z,97586.78
2022-11-09T13:36:26.585Z,97580.44
2022-11-09T13:40:48.528Z,97592.25
2022-11-09T13:45:29.914Z,97600.25
2022-11-09T13:49:51.937Z,97591.84
2022-11-09T13:54:33.731Z,97586.94
2022-11-09T13:58:57.792Z,97584.84
2022-11-09T14:03:20.930Z,97597.50
2022-11-09T14:07:41.388Z,97590.50
2022-11-09T14:12:13.938Z,97589.25
2022-11-09T14:16:41.854Z,97593.09
2022-11-09T14:21:24.491Z,97598.75
2022-11-09T14:25:45.620Z,97601.78
2022-11-09T14:30:22.429Z,97595.78
2022-11-09T14:34:43.089Z,97603.25
2022-11-09T14:39:06.275Z,97605.53
2022-11-09T14:43:44.376Z,97611.31
2022-11-09T14:48:05.139Z,97614.53
2022-11-09T14:52:29.986Z,97614.28
2022-11-09T14:56:50.989Z,97626.03
2022-11-09T15:01:17.637Z,97623.03
2022-11-09T15:05:40.568Z,97627.00
2022-11-09T15:10:07.546Z,97629.25
2022-11-09T15:14:34.508Z,97623.81
2022-11-09T15:18:55.074Z,97620.72
2022-11-09T15:23:39.776Z,97627.56
2022-11-09T15:28:09.491Z,97624.50
2022-11-09T15:32:35.383Z,97635.44
2022-11-09T15:36:55.990Z,97648.03
2022-11-09T15:41:21.775Z,97653.66
2022-11-09T15:45:42.758Z,97643.66
2022-11-09T15:50:15.124Z,97644.97
2022-11-09T15:54:35.479Z,97651.53
2022-11-09T15:58:55.894Z,97651.91
2022-11-09T16:03:17.795Z,97651.47
2022-11-09T16:07:38.614Z,97660.75
2022-11-09T16:11:59.461Z,97657.63
2022-11-09T16:16:20.216Z,97662.38
2022-11-09T16:20:40.471Z,97677.09
2022-11-09T16:25:01.156Z,97684.19
2022-11-09T16:29:27.501Z,97697.34
2022-11-09T16:33:48.101Z,97700.91
2022-11-09T16:38:08.634Z,97701.94
2022-11-09T16:42:33.083Z,97712.38
2022-11-09T16:46:53.824Z,97715.75
2022-11-09T16:51:14.439Z,97715.75
2022-11-09T16:55:35.562Z,97720.28
2022-11-09T16:59:56.101Z,97733.56
2022-11-09T17:04:16.587Z,97731.78
2022-11-09T17:08:39.187Z,97727.63
2022-11-09T17:13:00.019Z,97739.34
2022-11-09T17:17:22.750Z,97741.34
2022-11-09T17:21:43.871Z,97741.47
2022-11-09T17:26:06.968Z,97757.84
2022-11-09T17:30:27.639Z,97763.63
2022-11-09T17:34:48.192Z,97775.56
2022-11-09T17:39:09.067Z,97793.69
2022-11-09T17:43:31.737Z,97797.53
2022-11-09T17:47:52.579Z,97801.25
2022-11-09T17:52:13.523Z,97801.38
2022-11-09T17:56:34.936Z,97798.06
2022-11-09T18:00:55.610Z,97810.34
2022-11-09T18:05:16.589Z,97803.38
2022-11-09T18:09:42.159Z,97813.22
2022-11-09T18:14:03.798Z,97818.72
2022-11-09T18:18:25.346Z,97809.22
2022-11-09T18:22:46.007Z,97813.63
2022-11-09T18:27:06.940Z,97812.94
2022-11-09T18:31:27.938Z,97819.19
2022-11-09T18:35:59.384Z,97824.63
2022-11-09T18:40:19.886Z,97824.84
2022-11-09T18:44:40.505Z,97828.69
2022-11-09T18:49:01.280Z,97839.53
2022-11-09T18:53:23.718Z,97852.00
2022-11-09T18:57:44.656Z,97853.75
2022-11-09T19:02:07.276Z,97861.03
2022-11-09T19:06:28.461Z,97871.88
2022-11-09T19:10:48.938Z,97879.94
2022-11-09T19:15:09.708Z,97885.34
2022-11-09T19:19:30.260Z,97895.97
2022-11-09T19:23:51.315Z,97895.28
2022-11-09T19:28:12.056Z,97896.41
2022-11-09T19:32:32.699Z,97902.84
2022-11-09T19:36:53.588Z,97904.50
2022-11-09T19:41:14.786Z,97917.78
2022-11-09T19:45:42.606Z,97917.94
2022-11-09T19:50:03.305Z,97918.06
2022-11-09T19:54:23.762Z,97931.41
2022-11-09T19:58:49.351Z,97940.38
2022-11-09T20:03:10.150Z,97939.59
2022-11-09T20:07:32.396Z,97962.31
2022-11-09T20:12:11.446Z,97958.09
2022-11-09T20:16:34.100Z,97958.25
2022-11-09T20:20:54.687Z,97962.84
2022-11-09T20:25:15.505Z,97961.44
2022-11-09T20:29:36.117Z,97973.91
2022-11-09T20:33:56.793Z,97991.63
2022-11-09T20:38:18.301Z,97990.97
2022-11-09T20:42:38.693Z,97986.75
2022-11-09T20:46:59.322Z,97992.16
2022-11-09T20:51:20.621Z,97997.47
2022-11-09T20:55:42.397Z,98004.47
2022-11-09T21:00:04.472Z,98004.63
2022-11-09T21:04:25.226Z,98013.53
2022-11-09T21:08:49.846Z,98027.56
2022-11-09T21:13:10.636Z,98026.09
2022-11-09T21:17:31.531Z,98033.34
2022-11-09T21:21:52.351Z,98031.75
2022-11-09T21:26:31.492Z,98033.66
2022-11-09T21:30:52.268Z,98042.84
2022-11-09T21:35:12.704Z,98054.75
2022-11-09T21:39:33.633Z,98062.16
2022-11-09T21:43:55.670Z,98068.59
2022-11-09T21:48:16.103Z,98068.81
2022-11-09T21:52:36.634Z,98079.50
2022-11-09T21:56:57.438Z,98090.22
2022-11-09T22:01:18.304Z,98098.16
2022-11-09T22:05:42.002Z,98106.97
2022-11-09T22:10:11.340Z,98105.44
2022-11-09T22:14:51.105Z,98112.63
2022-11-09T22:19:30.556Z,98113.78
2022-11-09T22:23:51.389Z,98116.75
2022-11-09T22:28:12.247Z,98127.44
2022-11-09T22:32:32.748Z,98130.41
2022-11-09T22:36:53.338Z,98131.44
2022-11-09T22:41:15.388Z,98144.53
2022-11-09T22:45:36.060Z,98148.88
2022-11-09T22:49:56.630Z,98159.34
2022-11-09T22:54:17.304Z,98159.34
2022-11-09T22:58:38.103Z,98158.59
2022-11-09T23:02:58.525Z,98162.19
2022-11-09T23:07:19.432Z,98170.28
2022-11-09T23:11:39.962Z,98168.78
2022-11-09T23:16:03.024Z,98179.47
2022-11-09T23:20:23.671Z,98177.06
2022-11-09T23:25:03.287Z,98177.06
2022-11-09T23:29:24.127Z,98177.13
2022-11-09T23:33:44.842Z,98180.94
2022-11-09T23:38:06.272Z,98189.13
2022-11-09T23:42:27.107Z,98191.06
2022-11-09T23:46:48.191Z,98191.38
2022-11-09T23:51:09.479Z,98205.59
2022-11-09T23:55:30.504Z,98206.69
2022-11-09T23:59:51.444Z,98217.44
